Time;durP1;ratioP1;P1;durP2;ratioP2;P2;SDS_P1;SDS_P2;PMS_P1;PMS_P2;Temp;Humidity;BMP_temperature;BMP_pressure;BME280_temperature;BME280_humidity;BME280_pressure;Samples;Min_cycle;Max_cycle;Signal;HPM_P1;HPM_P2
2020/12/10 00:02:04;;;;;;;22.83;10.10;;;;;;;2.31;100.00;97082.63;5090225;28;19919;-76
2020/12/10 00:04:29;;;;;;;17.33;9.07;;;;;;;2.11;100.00;97051.78;5090424;28;20031;-76
2020/12/10 00:06:54;;;;;;;;;;;;;;;2.26;100.00;97074.47;5090659;28;20089;-76
2020/12/10 00:09:20;;;;;;;14.50;9.80;;;;;;;2.28;100.00;97065.06;5091432;28;19912;-76
2020/12/10 00:11:46;;;;;;;16.33;10.25;;;;;;;2.37;100.00;97068.06;5090200;28;20123;-76
2020/12/10 00:14:11;;;;;;;;;;;;;;;2.38;100.00;97075.09;5101112;28;20081;-75
2020/12/10 00:16:36;;;;;;;19.65;10.15;;;;;;;2.30;100.00;97072.91;5090595;28;19916;-75
2020/12/10 00:19:02;;;;;;;;;;;;;;;2.31;100.00;97075.34;5104554;28;20019;-75
2020/12/10 00:21:28;;;;;;;17.15;9.05;;;;;;;2.25;100.00;97065.59;5111408;28;20432;-75
2020/12/10 00:23:53;;;;;;;15.35;10.07;;;;;;;2.35;100.00;97064.84;5111331;28;20030;-75
2020/12/10 00:26:19;;;;;;;16.98;10.57;;;;;;;2.30;100.00;97059.41;5111173;28;20011;-77
2020/12/10 00:28:45;;;;;;;16.95;10.60;;;;;;;2.31;100.00;97069.94;5111235;28;20024;-75
2020/12/10 00:31:10;;;;;;;12.43;8.70;;;;;;;2.32;100.00;97082.34;5111064;28;20438;-76
2020/12/10 00:33:37;;;;;;;;;;;;;;;2.19;100.00;97079.34;5112054;28;20038;-76
2020/12/10 00:36:03;;;;;;;20.30;9.65;;;;;;;2.14;100.00;97072.03;5111339;28;19946;-76
2020/12/10 00:38:28;;;;;;;17.90;11.07;;;;;;;2.34;100.00;97077.50;5111179;28;20431;-75
2020/12/10 00:40:54;;;;;;;19.42;9.82;;;;;;;2.33;100.00;97067.78;5111078;28;20032;-74
2020/12/10 00:43:20;;;;;;;14.60;10.60;;;;;;;2.48;100.00;97064.31;5110953;28;20050;-75
2020/12/10 00:45:46;;;;;;;14.82;9.07;;;;;;;2.57;100.00;97077.03;5111024;28;20027;-75
2020/12/10 00:48:11;;;;;;;16.75;11.57;;;;;;;2.55;100.00;97086.47;5110955;28;20119;-76
2020/12/10 00:50:37;;;;;;;23.58;10.10;;;;;;;2.64;100.00;97084.88;5109664;28;20145;-75
2020/12/10 00:53:02;;;;;;;;;;;;;;;2.38;100.00;97080.50;5111670;28;20030;-76
2020/12/10 00:55:28;;;;;;;14.45;9.30;;;;;;;2.24;100.00;97079.34;5109552;28;19919;-75
2020/12/10 00:57:53;;;;;;;17.98;9.98;;;;;;;2.21;100.00;97069.09;5110971;28;20031;-75
2020/12/10 01:00:19;;;;;;;17.45;9.52;;;;;;;2.14;100.00;97070.13;5110766;28;20030;-76
2020/12/10 01:02:44;;;;;;;18.67;10.88;;;;;;;2.25;100.00;97081.78;5110137;28;20747;-75
2020/12/10 01:05:10;;;;;;;18.67;10.38;;;;;;;2.17;100.00;97064.22;5111203;28;20030;-75
2020/12/10 01:07:36;;;;;;;20.60;10.70;;;;;;;2.26;100.00;97066.41;5109057;28;20027;-75
2020/12/10 01:10:05;;;;;;;16.08;9.55;;;;;;;2.32;100.00;97065.38;5089387;28;20111;-75
2020/12/10 01:12:30;;;;;;;15.40;8.65;;;;;;;2.36;100.00;97050.25;5090621;28;20024;-76
2020/12/10 01:14:55;;;;;;;21.35;9.45;;;;;;;2.44;100.00;97063.25;5089162;28;20028;-75
2020/12/10 01:17:21;;;;;;;;;;;;;;;2.35;100.00;97051.34;5089813;28;20069;-76
2020/12/10 01:19:46;;;;;;;17.25;10.32;;;;;;;2.20;100.00;97044.00;5090361;28;20357;-76
2020/12/10 01:22:11;;;;;;;;;;;;;;;2.25;100.00;97051.31;5090821;28;20024;-75
2020/12/10 01:24:37;;;;;;;15.73;8.55;;;;;;;2.43;100.00;97051.63;5090175;28;19920;-75
2020/12/10 01:27:02;;;;;;;;;;;;;;;2.33;100.00;97058.88;5092422;28;20028;-75
2020/12/10 01:29:27;;;;;;;22.52;12.27;;;;;;;2.26;100.00;97055.59;5094338;28;20327;-76
2020/12/10 01:31:53;;;;;;;;;;;;;;;2.21;100.00;97058.28;5093411;28;20120;-74
2020/12/10 01:34:19;;;;;;;14.60;9.25;;;;;;;2.12;100.00;97058.81;5094656;28;19951;-75
2020/12/10 01:36:44;;;;;;;;;;;;;;;2.04;100.00;97056.59;5093386;28;20028;-76
2020/12/10 01:39:10;;;;;;;24.83;10.63;;;;;;;2.04;100.00;97055.78;5093058;28;19916;-75
2020/12/10 01:41:35;;;;;;;18.92;10.30;;;;;;;2.06;100.00;97050.97;5094129;28;20426;-75
2020/12/10 01:44:11;;;;;;;13.95;11.00;;;;;;;2.09;100.00;97050.44;5094010;28;20513;-75
2020/12/10 01:46:39;;;;;;;18.85;10.40;;;;;;;2.13;100.00;97065.03;5094226;28;20031;-75
2020/12/10 01:49:07;;;;;;;22.98;10.07;;;;;;;2.07;100.00;97057.97;5093922;28;20111;-75
2020/12/10 01:51:33;;;;;;;17.98;11.40;;;;;;;1.93;100.00;97040.66;5092579;28;20388;-76
2020/12/10 01:54:00;;;;;;;18.77;10.73;;;;;;;2.00;100.00;97049.31;5093972;28;20476;-75
2020/12/10 01:56:26;;;;;;;22.52;12.20;;;;;;;1.96;100.00;97049.03;5094025;28;20028;-75
2020/12/10 01:58:52;;;;;;;23.98;12.02;;;;;;;1.96;100.00;97054.44;5093903;28;20035;-75
2020/12/10 02:01:18;;;;;;;17.77;10.80;;;;;;;2.04;100.00;97059.31;5093780;28;20030;-75
2020/12/10 02:03:44;;;;;;;20.02;10.93;;;;;;;1.96;100.00;97056.31;5092934;28;20362;-74
2020/12/10 02:06:09;;;;;;;18.70;11.15;;;;;;;1.96;100.00;97054.44;5094248;28;20032;-75
2020/12/10 02:08:39;;;;;;;;;;;;;;;1.95;100.00;97055.50;5094044;28;20427;-75
2020/12/10 02:11:07;;;;;;;18.02;10.27;;;;;;;2.12;100.00;97058.00;5092131;28;19920;-75
2020/12/10 02:13:32;;;;;;;18.70;10.68;;;;;;;2.02;100.00;97061.47;5090787;28;20038;-75
2020/12/10 02:15:58;;;;;;;16.42;10.85;;;;;;;2.03;100.00;97055.00;5093687;28;20032;-76
2020/12/10 02:18:23;;;;;;;14.15;9.48;;;;;;;2.01;100.00;97065.22;5101248;28;20468;-76
2020/12/10 02:20:49;;;;;;;21.10;11.98;;;;;;;2.00;100.00;97063.63;5113572;28;20038;-76
2020/12/10 02:23:14;;;;;;;19.77;12.75;;;;;;;1.91;100.00;97051.69;5099592;28;20028;-75
2020/12/10 02:25:39;;;;;;;18.25;10.48;;;;;;;1.88;100.00;97054.91;5093129;28;20024;-76
2020/12/10 02:28:16;;;;;;;18.13;11.60;;;;;;;1.86;100.00;97051.69;5092967;28;20032;-76
2020/12/10 02:30:42;;;;;;;21.20;12.23;;;;;;;1.97;100.00;97061.41;5093131;28;20063;-76
2020/12/10 02:33:09;;;;;;;23.25;12.95;;;;;;;1.79;100.00;97043.00;5091559;28;20043;-75
2020/12/10 02:35:37;;;;;;;19.08;12.15;;;;;;;1.94;100.00;97059.25;5108161;28;20388;-76
2020/12/10 02:38:05;;;;;;;20.63;12.65;;;;;;;1.93;100.00;97052.25;5112651;28;20054;-76
2020/12/10 02:40:34;;;;;;;22.27;13.13;;;;;;;1.90;100.00;97047.38;5111785;28;20031;-76
2020/12/10 02:42:59;;;;;;;15.38;10.82;;;;;;;1.89;100.00;97048.44;5112870;28;20489;-76
2020/12/10 02:45:25;;;;;;;20.20;12.50;;;;;;;1.82;100.00;97047.06;5111891;28;20107;-76
2020/12/10 02:47:52;;;;;;;17.55;11.77;;;;;;;1.84;100.00;97051.13;5112940;28;20038;-76
2020/12/10 02:50:17;;;;;;;18.48;11.98;;;;;;;1.96;100.00;97059.81;5113176;28;20023;-75
2020/12/10 02:52:43;;;;;;;22.60;12.98;;;;;;;1.95;100.00;97050.09;5113093;28;20026;-77
2020/12/10 02:55:09;;;;;;;16.65;10.73;;;;;;;1.88;100.00;97049.50;5113070;28;20023;-75
2020/12/10 02:57:35;;;;;;;23.10;11.38;;;;;;;1.85;100.00;97044.66;5113576;28;20026;-76
2020/12/10 03:00:00;;;;;;;19.02;10.23;;;;;;;1.94;100.00;97039.59;5112892;28;20035;-76
2020/12/10 03:02:26;;;;;;;23.92;11.77;;;;;;;2.01;100.00;97043.66;5111720;28;20024;-75
2020/12/10 03:04:52;;;;;;;21.83;13.02;;;;;;;1.90;100.00;97039.31;5108447;28;20051;-75
2020/12/10 03:07:17;;;;;;;16.15;10.32;;;;;;;1.94;100.00;97044.97;5099259;27;20028;-76
2020/12/10 03:09:43;;;;;;;20.85;13.02;;;;;;;1.91;100.00;97043.59;5090887;28;20039;-77
2020/12/10 03:12:10;;;;;;;25.73;13.65;;;;;;;1.83;100.00;97030.63;5110969;28;20484;-76
2020/12/10 03:14:36;;;;;;;19.08;11.65;;;;;;;1.83;100.00;97030.63;5114588;28;20046;-75
2020/12/10 03:17:02;;;;;;;17.73;12.00;;;;;;;1.90;100.00;97039.31;5112460;28;20024;-75
2020/12/10 03:19:27;;;;;;;20.77;11.48;;;;;;;1.79;100.00;97028.72;5112058;27;20066;-74
2020/12/10 03:21:53;;;;;;;19.35;10.27;;;;;;;1.81;100.00;97029.28;5112149;28;20070;-76
2020/12/10 03:24:18;;;;;;;18.10;10.75;;;;;;;1.86;100.00;97035.50;5110879;28;20027;-76
2020/12/10 03:26:43;;;;;;;20.70;12.23;;;;;;;1.82;100.00;97034.41;5112457;28;20102;-77
2020/12/10 03:29:09;;;;;;;17.10;10.68;;;;;;;1.81;100.00;97027.41;5110970;28;20045;-77
2020/12/10 03:31:36;;;;;;;20.15;9.23;;;;;;;1.86;100.00;97030.09;5112333;28;20534;-76
2020/12/10 03:34:04;;;;;;;16.88;9.43;;;;;;;1.88;100.00;97033.34;5110782;28;20502;-76
2020/12/10 03:36:50;;;;;;;18.52;10.32;;;;;;;1.84;100.00;97018.78;5111199;28;20499;-75
2020/12/10 03:39:17;;;;;;;23.20;12.15;;;;;;;1.80;100.00;97016.88;5111509;28;20067;-76
2020/12/10 03:41:43;;;;;;;17.40;10.20;;;;;;;1.88;100.00;97027.94;5112108;28;20027;-75
2020/12/10 03:44:09;;;;;;;14.27;10.23;;;;;;;1.88;100.00;97027.94;5110106;28;20039;-75
2020/12/10 03:46:35;;;;;;;16.13;10.10;;;;;;;2.02;100.00;97033.69;5111796;28;20541;-77
2020/12/10 03:49:00;;;;;;;15.48;11.60;;;;;;;2.05;100.00;97033.97;5110296;28;20466;-76
2020/12/10 03:51:26;;;;;;;17.13;12.05;;;;;;;2.20;100.00;97030.50;5109457;28;20497;-76
2020/12/10 03:53:51;;;;;;;;;;;;;;;2.16;100.00;97037.53;5111060;28;20027;-76
2020/12/10 03:56:17;;;;;;;18.73;10.05;;;;;;;2.08;100.00;97043.41;5110783;28;20006;-75
2020/12/10 03:58:42;;;;;;;;;;;;;;;2.13;100.00;97032.66;5108820;28;20092;-76
2020/12/10 04:01:07;;;;;;;17.05;9.27;;;;;;;1.96;100.00;97022.06;5091316;28;20014;-75
2020/12/10 04:03:33;;;;;;;;;;;;;;;2.05;100.00;97030.47;5090598;28;20101;-76
2020/12/10 04:05:58;;;;;;;21.50;9.90;;;;;;;2.07;100.00;97026.41;5091889;28;19923;-76
2020/12/10 04:08:23;;;;;;;22.50;11.07;;;;;;;2.10;100.00;97025.06;5091371;28;20040;-76
2020/12/10 04:10:49;;;;;;;19.77;10.93;;;;;;;2.02;100.00;97021.00;5094205;28;20031;-76
2020/12/10 04:13:14;;;;;;;25.25;13.35;;;;;;;1.98;100.00;97016.41;5111622;28;20074;-75
2020/12/10 04:15:40;;;;;;;17.83;10.75;;;;;;;1.85;100.00;96998.03;5111628;28;20031;-75
2020/12/10 04:18:05;;;;;;;21.17;10.75;;;;;;;1.99;100.00;97018.03;5111923;28;20027;-76
2020/12/10 04:20:30;;;;;;;;;;;;;;;2.05;100.00;97017.78;5112320;28;20023;-76
2020/12/10 04:22:56;;;;;;;24.60;10.85;;;;;;;2.01;100.00;97010.47;5112431;28;19961;-75
2020/12/10 04:25:21;;;;;;;;;;;;;;;1.97;100.00;97020.97;5111507;28;20480;-76
2020/12/10 04:27:46;;;;;;;17.67;9.98;;;;;;;1.97;100.00;97015.59;5111424;28;19922;-76
2020/12/10 04:30:11;;;;;;;;;;;;;;;2.01;100.00;97015.88;5113218;28;20031;-75
2020/12/10 04:32:37;;;;;;;17.48;9.15;;;;;;;1.99;100.00;97020.72;5112880;28;20279;-76
2020/12/10 04:35:02;;;;;;;;;;;;;;;2.08;100.00;97028.03;5109000;28;20039;-76
2020/12/10 04:37:28;;;;;;;18.25;10.30;;;;;;;2.13;100.00;97028.06;5096730;28;19923;-77
2020/12/10 04:39:53;;;;;;;;;;;;;;;2.12;100.00;97029.16;5092605;28;20464;-76
2020/12/10 04:42:19;;;;;;;18.88;9.50;;;;;;;1.97;100.00;97017.50;5111251;28;19915;-75
2020/12/10 04:44:48;;;;;;;18.65;10.73;;;;;;;1.88;100.00;97011.78;5112622;28;20429;-75
2020/12/10 04:47:14;;;;;;;19.73;11.60;;;;;;;1.92;100.00;97028.25;5110757;28;20023;-75
2020/12/10 04:49:40;;;;;;;15.27;9.45;;;;;;;1.84;100.00;97008.00;5110801;28;20088;-76
2020/12/10 04:52:09;;;;;;;17.80;11.57;;;;;;;1.97;100.00;97020.97;5108985;28;20073;-76
2020/12/10 04:54:35;;;;;;;18.38;10.68;;;;;;;1.96;100.00;97008.59;5090350;28;20021;-76
2020/12/10 04:57:02;;;;;;;20.05;9.90;;;;;;;2.11;100.00;97024.81;5090262;28;20038;-75
2020/12/10 04:59:27;;;;;;;18.63;10.23;;;;;;;2.11;100.00;97032.91;5088886;28;20063;-75
2020/12/10 05:01:56;;;;;;;19.33;10.23;;;;;;;2.10;100.00;97020.50;5088541;28;20450;-76
2020/12/10 05:04:23;;;;;;;18.30;11.38;;;;;;;2.17;100.00;97036.44;5088969;28;20020;-75
2020/12/10 05:06:50;;;;;;;16.42;10.18;;;;;;;2.26;100.00;97034.03;5090959;28;20016;-76
2020/12/10 05:09:15;;;;;;;17.63;9.10;;;;;;;2.24;100.00;97023.50;5090308;28;20433;-77
2020/12/10 05:11:41;;;;;;;14.38;9.90;;;;;;;2.30;100.00;97035.13;5088702;28;20028;-75
2020/12/10 05:14:06;;;;;;;;;;;;;;;2.26;100.00;97032.13;5089087;28;20028;-76
2020/12/10 05:16:32;;;;;;;20.13;11.50;;;;;;;2.14;100.00;97023.47;5090357;28;19956;-76
2020/12/10 05:19:15;;;;;;;;;;;;;;;2.03;100.00;97024.53;5090440;28;20031;-76
2020/12/10 05:21:40;;;;;;;18.88;11.35;;;;;;;1.93;100.00;97030.69;5089116;28;20001;-76
2020/12/10 05:24:20;;;;;;;18.30;11.05;;;;;;;2.00;100.00;97035.84;5090250;28;20111;-76
2020/12/10 05:26:45;;;;;;;23.23;10.88;;;;;;;2.05;100.00;97036.66;5088882;28;20025;-76
2020/12/10 05:29:11;;;;;;;22.00;10.50;;;;;;;2.13;100.00;97046.94;5088837;28;20039;-76
2020/12/10 05:31:36;;;;;;;;;;;;;;;2.09;100.00;97045.84;5090856;28;20032;-76
2020/12/10 05:34:02;;;;;;;19.05;10.90;;;;;;;2.21;100.00;97042.09;5088738;28;20003;-76
2020/12/10 05:36:31;;;;;;;16.30;11.60;;;;;;;2.16;100.00;97046.41;5090680;28;20031;-76
2020/12/10 05:39:04;;;;;;;19.83;11.40;;;;;;;2.24;100.00;97041.59;5088831;28;20050;-76
2020/12/10 05:41:31;;;;;;;20.20;11.32;;;;;;;2.15;100.00;97058.28;5090237;28;20046;-76
2020/12/10 05:44:16;;;;;;;22.23;12.05;;;;;;;2.22;100.00;97054.53;5089814;28;20048;-75
2020/12/10 05:46:42;;;;;;;24.45;11.32;;;;;;;2.23;100.00;97048.84;5091337;28;20039;-76
2020/12/10 05:49:07;;;;;;;20.23;11.35;;;;;;;2.11;100.00;97053.66;5088833;28;20477;-76
2020/12/10 05:51:47;;;;;;;24.02;11.77;;;;;;;2.05;100.00;97052.03;5089970;28;20028;-76
2020/12/10 05:54:15;;;;;;;23.80;10.98;;;;;;;2.03;100.00;97040.72;5089850;28;20437;-75
2020/12/10 05:56:56;;;;;;;26.92;12.95;;;;;;;2.10;100.00;97052.84;5090286;28;20032;-76
2020/12/10 05:59:26;;;;;;;22.25;11.75;;;;;;;2.06;100.00;97041.00;5090366;28;20024;-76
2020/12/10 06:02:03;;;;;;;19.52;12.57;;;;;;;2.09;100.00;97048.56;5090349;28;20884;-76
2020/12/10 06:04:29;;;;;;;21.27;10.85;;;;;;;2.03;100.00;97038.81;5091505;28;20028;-74
2020/12/10 06:06:59;;;;;;;28.92;13.25;;;;;;;2.05;100.00;97049.34;5102648;28;20024;-75
2020/12/10 06:09:25;;;;;;;24.98;12.80;;;;;;;2.07;100.00;97048.00;5091292;28;20028;-75
2020/12/10 06:12:04;;;;;;;22.30;10.75;;;;;;;2.24;100.00;97036.19;5098445;28;20050;-74
2020/12/10 06:14:30;;;;;;;23.27;11.95;;;;;;;2.28;100.00;97048.06;5100168;28;20028;-74
2020/12/10 06:17:09;;;;;;;16.92;10.88;;;;;;;2.40;100.00;97051.34;5101204;28;20476;-75
2020/12/10 06:19:36;;;;;;;18.70;10.85;;;;;;;2.44;100.00;97064.06;5093149;28;20027;-74
2020/12/10 06:22:27;;;;;;;16.67;11.00;;;;;;;2.33;100.00;97056.19;5099007;28;20030;-75
2020/12/10 06:25:04;;;;;;;17.80;10.18;;;;;;;2.31;100.00;97059.16;5096983;28;20034;-74
2020/12/10 06:27:34;;;;;;;19.42;10.55;;;;;;;2.21;100.00;97023.22;5099087;28;20062;-74
2020/12/10 06:30:14;;;;;;;24.05;9.82;;;;;;;2.37;99.93;97062.66;5095989;28;20035;-74
2020/12/10 06:32:45;;;;;;;17.48;9.68;;;;;;;2.47;100.00;97051.91;5095105;28;20039;-74
2020/12/10 06:35:32;;;;;;;15.90;10.13;;;;;;;2.60;100.00;97057.59;5100684;28;20028;-73
2020/12/10 06:37:58;;;;;;;21.38;10.55;;;;;;;2.57;99.70;97052.72;5102465;28;20030;-74
2020/12/10 06:40:29;;;;;;;21.15;11.38;;;;;;;2.72;100.00;97066.25;5099840;28;20015;-74
2020/12/10 06:42:54;;;;;;;18.38;11.07;;;;;;;2.75;98.73;97059.53;5101662;28;20097;-74
2020/12/10 06:45:26;;;;;;;18.33;9.95;;;;;;;2.60;98.38;97070.31;5098596;28;20415;-74
2020/12/10 06:47:52;;;;;;;23.05;10.98;;;;;;;2.73;98.93;97072.47;5091374;28;20373;-74
2020/12/10 06:50:38;;;;;;;18.63;10.25;;;;;;;2.58;99.61;97058.94;5094380;28;20051;-72
2020/12/10 06:53:06;;;;;;;17.98;10.95;;;;;;;2.68;99.50;97072.47;5098623;28;20467;-74
2020/12/10 06:55:32;;;;;;;20.08;9.63;;;;;;;2.60;99.25;97078.41;5096100;28;20028;-74
2020/12/10 06:58:06;;;;;;;21.35;12.57;;;;;;;2.51;99.35;97085.38;5095391;28;20089;-74
2020/12/10 07:00:50;;;;;;;15.35;10.05;;;;;;;2.51;99.91;97086.19;5109286;28;20031;-74
2020/12/10 07:03:21;;;;;;;18.27;10.32;;;;;;;2.50;99.70;97078.38;5112874;28;20366;-74
2020/12/10 07:05:46;;;;;;;17.33;10.98;;;;;;;2.56;99.65;97082.69;5112316;27;20111;-74
2020/12/10 07:08:15;;;;;;;17.60;10.38;;;;;;;2.72;99.62;97087.06;5112663;28;20571;-75
2020/12/10 07:10:43;;;;;;;17.55;11.10;;;;;;;2.59;98.47;97084.88;5111085;28;20034;-74
2020/12/10 07:13:09;;;;;;;25.73;10.85;;;;;;;2.64;98.21;97082.16;5111097;28;20027;-75
2020/12/10 07:15:35;;;;;;;21.42;10.38;;;;;;;2.66;98.75;97085.44;5108037;28;20028;-75
2020/12/10 07:18:04;;;;;;;20.85;11.25;;;;;;;2.50;97.87;97091.88;5091826;28;20032;-74
2020/12/10 07:20:31;;;;;;;19.85;10.52;;;;;;;2.33;97.32;97077.75;5097278;28;20024;-74
2020/12/10 07:22:57;;;;;;;17.52;11.25;;;;;;;2.29;97.19;97082.88;5090650;28;20020;-74
2020/12/10 07:25:23;;;;;;;16.25;9.80;;;;;;;2.38;97.11;97089.38;5091160;28;20031;-74
2020/12/10 07:27:48;;;;;;;;;;;;;;;2.63;97.34;97097.56;5091853;28;20073;-75
2020/12/10 07:30:15;;;;;;;19.35;10.15;;;;;;;2.62;96.38;97090.56;5099123;28;19920;-74
2020/12/10 07:32:41;;;;;;;15.32;9.68;;;;;;;2.57;96.68;97087.00;5097342;28;20032;-74
2020/12/10 07:35:07;;;;;;;18.90;10.43;;;;;;;2.48;96.67;97096.69;5090961;28;20031;-74
2020/12/10 07:37:33;;;;;;;16.88;10.07;;;;;;;2.49;97.58;97090.22;5089026;28;20108;-74
2020/12/10 07:40:18;;;;;;;15.90;9.85;;;;;;;2.45;97.84;97094.53;5091263;28;20024;-73
2020/12/10 07:42:44;;;;;;;18.27;9.75;;;;;;;2.47;98.30;97092.41;5091158;28;20059;-73
2020/12/10 07:45:15;;;;;;;19.15;10.57;;;;;;;3.00;97.76;97089.28;5089980;28;20024;-73
2020/12/10 07:47:40;;;;;;;18.05;10.45;;;;;;;2.60;97.75;97083.81;5103348;28;20038;-74
2020/12/10 07:50:08;;;;;;;12.73;9.27;;;;;;;2.46;98.26;97088.88;5111803;28;20031;-75
2020/12/10 07:52:43;;;;;;;17.20;11.27;;;;;;;2.56;98.52;97085.41;5110325;28;20040;-73
2020/12/10 07:55:15;;;;;;;17.13;9.60;;;;;;;2.74;98.12;97090.31;5111572;28;20019;-74
2020/12/10 07:57:45;;;;;;;16.85;9.75;;;;;;;2.70;95.92;97089.19;5111168;28;20102;-73
2020/12/10 08:00:16;;;;;;;14.18;8.98;;;;;;;2.87;97.48;97095.19;5111056;28;20035;-75
2020/12/10 08:03:05;;;;;;;16.27;12.02;;;;;;;2.91;96.44;97096.28;5111382;28;20033;-74
2020/12/10 08:05:31;;;;;;;15.32;9.13;;;;;;;3.58;96.18;97090.63;5109507;28;20076;-74
2020/12/10 08:07:57;;;;;;;20.17;10.25;;;;;;;3.02;95.66;97086.28;5110260;28;20019;-75
2020/12/10 08:10:28;;;;;;;15.85;9.43;;;;;;;2.82;96.27;97087.06;5111418;28;20045;-74
2020/12/10 08:13:16;;;;;;;15.10;9.60;;;;;;;3.21;96.07;97096.31;5111456;28;20049;-74
2020/12/10 08:15:43;;;;;;;15.23;8.52;;;;;;;2.89;96.45;97092.22;5109225;28;20038;-74
2020/12/10 08:18:12;;;;;;;19.13;11.02;;;;;;;2.61;96.27;97085.41;5110751;28;20027;-74
2020/12/10 08:20:42;;;;;;;18.98;9.05;;;;;;;3.24;96.72;97095.78;5109850;28;20122;-74
2020/12/10 08:23:07;;;;;;;15.23;8.88;;;;;;;3.25;95.00;97093.88;5109728;28;20395;-74
2020/12/10 08:25:33;;;;;;;18.10;10.48;;;;;;;3.27;94.38;97096.31;5110519;28;20114;-74
2020/12/10 08:27:58;;;;;;;17.60;9.20;;;;;;;3.43;92.85;97089.81;5110813;28;20060;-74
2020/12/10 08:30:24;;;;;;;;;;;;;;;3.03;95.38;97099.53;5111755;28;20027;-74
2020/12/10 08:32:53;;;;;;;14.23;8.32;;;;;;;2.81;96.00;97104.38;5111037;28;20326;-75
2020/12/10 08:35:19;;;;;;;17.25;9.23;;;;;;;3.14;96.30;97101.16;5109402;28;20376;-74
2020/12/10 08:37:46;;;;;;;13.95;9.73;;;;;;;3.61;92.71;97097.38;5110242;28;20078;-74
2020/12/10 08:40:12;;;;;;;14.40;9.07;;;;;;;3.36;93.83;97103.59;5105265;28;20028;-75
2020/12/10 08:42:38;;;;;;;19.88;10.68;;;;;;;3.97;92.34;97103.53;5098892;28;20413;-74
2020/12/10 08:45:04;;;;;;;18.88;10.05;;;;;;;3.78;91.10;97108.72;5101326;28;20079;-74
2020/12/10 08:47:32;;;;;;;14.10;9.40;;;;;;;3.81;90.41;97104.66;5096073;28;20028;-74
2020/12/10 08:50:29;;;;;;;15.75;8.85;;;;;;;3.26;92.83;97103.59;5099497;28;20063;-74
2020/12/10 08:52:58;;;;;;;18.05;10.18;;;;;;;3.19;93.79;97120.09;5100106;28;20027;-74
2020/12/10 08:55:23;;;;;;;17.60;9.90;;;;;;;3.11;93.89;97117.09;5098105;28;20042;-74
2020/12/10 08:57:49;;;;;;;10.82;7.93;;;;;;;3.15;93.41;97124.41;5097417;28;20404;-74
2020/12/10 09:00:14;;;;;;;12.20;8.60;;;;;;;3.10;94.21;97116.28;5100205;28;20019;-74
2020/12/10 09:02:40;;;;;;;;;;;;;;;3.09;95.37;97122.78;5093587;28;20032;-74
2020/12/10 09:05:05;;;;;;;13.82;8.13;;;;;;;3.28;94.76;97122.25;5088343;28;19961;-74
2020/12/10 09:07:30;;;;;;;;;;;;;;;3.34;94.67;97121.16;5089104;28;20465;-74
2020/12/10 09:09:56;;;;;;;13.93;8.82;;;;;;;3.12;93.46;97103.34;5090008;28;20326;-73
2020/12/10 09:12:21;;;;;;;;;;;;;;;3.20;95.35;97118.19;5090335;28;20102;-74
2020/12/10 09:14:47;;;;;;;12.55;7.80;;;;;;;3.12;95.04;97119.53;5095639;28;19920;-74
2020/12/10 09:17:12;;;;;;;;;;;;;;;3.20;93.93;97118.19;5100645;28;20016;-74
2020/12/10 09:19:37;;;;;;;17.30;9.52;;;;;;;3.06;94.13;97119.78;5096589;28;19919;-74
2020/12/10 09:22:03;;;;;;;16.85;9.52;;;;;;;3.04;94.88;97106.53;5099037;28;20473;-75
2020/12/10 09:24:29;;;;;;;18.73;11.45;;;;;;;3.06;95.34;97125.19;5097571;28;20047;-74
2020/12/10 09:26:54;;;;;;;12.95;9.25;;;;;;;3.00;95.23;97110.88;5098135;28;20054;-74
2020/12/10 09:29:19;;;;;;;17.50;10.57;;;;;;;3.22;95.12;97114.16;5098408;28;20027;-74
2020/12/10 09:31:45;;;;;;;15.93;9.75;;;;;;;3.23;94.89;97117.63;5100557;28;20055;-74
2020/12/10 09:34:10;;;;;;;14.50;10.00;;;;;;;3.32;95.48;97116.03;5095890;28;20128;-74
2020/12/10 09:36:36;;;;;;;18.23;9.30;;;;;;;3.28;95.44;97114.16;5103871;28;20032;-75
2020/12/10 09:39:01;;;;;;;16.55;10.82;;;;;;;3.61;93.89;97121.69;5108429;28;20027;-74
2020/12/10 09:41:26;;;;;;;15.05;9.23;;;;;;;3.36;93.37;97113.59;5092231;28;20027;-74
2020/12/10 09:43:52;;;;;;;16.63;10.85;;;;;;;3.23;94.10;97120.34;5098585;28;20510;-74
2020/12/10 09:46:17;;;;;;;16.38;10.80;;;;;;;3.29;93.73;97113.06;5095587;28;20039;-74
2020/12/10 09:48:43;;;;;;;16.73;10.00;;;;;;;3.32;92.91;97115.25;5099731;28;20028;-74
2020/12/10 09:51:08;;;;;;;14.02;9.15;;;;;;;3.53;93.39;97111.44;5092175;28;20473;-74
2020/12/10 09:53:39;;;;;;;15.07;9.95;;;;;;;3.38;93.72;97111.44;5101777;28;20089;-74
2020/12/10 09:58:36;;;;;;;15.73;11.38;;;;;;;3.52;92.91;97102.53;5101390;28;20032;-73
2020/12/10 10:01:02;;;;;;;19.00;10.05;;;;;;;3.52;92.38;97091.72;5102277;28;20504;-74
2020/12/10 10:03:27;;;;;;;;;;;;;;;3.66;93.43;97100.91;5103126;28;20027;-73
2020/12/10 10:05:52;;;;;;;22.67;11.57;;;;;;;3.81;93.46;97093.84;5105635;28;20383;-74
2020/12/10 10:08:21;;;;;;;;;;;;;;;3.75;93.01;97090.34;5103033;28;20032;-74
2020/12/10 10:10:46;;;;;;;14.27;9.00;;;;;;;3.55;92.06;97085.75;5103060;28;20002;-75
2020/12/10 10:13:12;;;;;;;13.52;8.35;;;;;;;3.63;93.46;97084.41;5099651;28;20106;-73
2020/12/10 10:15:38;;;;;;;;;;;;;;;3.76;92.54;97087.34;5106301;28;20023;-74
2020/12/10 10:18:03;;;;;;;13.82;8.73;;;;;;;3.70;93.10;97072.22;5110489;28;20323;-73
2020/12/10 10:20:29;;;;;;;15.32;9.80;;;;;;;3.79;92.48;97089.50;5112497;28;20026;-73
2020/12/10 10:22:54;;;;;;;;;;;;;;;3.91;92.75;97081.13;5112626;28;20046;-73
2020/12/10 10:25:22;;;;;;;15.52;9.02;;;;;;;3.93;92.45;97078.94;5110851;28;19965;-73
2020/12/10 10:27:49;;;;;;;16.92;10.40;;;;;;;3.91;91.52;97077.59;5112253;28;20039;-72
2020/12/10 10:30:15;;;;;;;16.10;10.18;;;;;;;4.13;91.45;97081.59;5111683;28;20035;-73
2020/12/10 10:32:40;;;;;;;14.63;9.45;;;;;;;4.20;91.17;97087.50;5112062;28;20356;-73
2020/12/10 10:35:06;;;;;;;16.05;8.90;;;;;;;4.11;90.92;97066.69;5094066;28;20020;-73
2020/12/10 10:37:31;;;;;;;16.65;9.65;;;;;;;4.20;89.84;97082.09;5090058;28;20024;-74
2020/12/10 10:39:56;;;;;;;;;;;;;;;4.09;90.67;97080.50;5091295;28;20032;-73
2020/12/10 10:42:22;;;;;;;14.35;9.75;;;;;;;4.08;90.99;97073.47;5091360;28;19927;-73
2020/12/10 10:44:47;;;;;;;15.68;10.20;;;;;;;4.24;91.50;97083.16;5091953;28;20118;-73
2020/12/10 10:47:12;;;;;;;14.25;9.07;;;;;;;4.14;90.63;97083.19;5091431;28;20473;-73
2020/12/10 10:49:38;;;;;;;15.20;10.43;;;;;;;4.15;90.87;97076.72;5091678;28;20503;-73
2020/12/10 10:52:03;;;;;;;15.05;9.13;;;;;;;4.23;90.01;97089.66;5089900;28;20533;-73
2020/12/10 10:54:29;;;;;;;14.40;8.63;;;;;;;4.18;90.06;97062.63;5091369;28;20043;-73
2020/12/10 10:56:54;;;;;;;14.50;8.73;;;;;;;4.64;89.83;97071.34;5090986;28;20473;-72
2020/12/10 10:59:20;;;;;;;13.50;10.05;;;;;;;4.41;89.09;97065.78;5089204;28;20027;-73
2020/12/10 11:01:45;;;;;;;14.30;9.25;;;;;;;4.52;90.16;97060.03;5089998;28;20023;-73
2020/12/10 11:04:11;;;;;;;16.83;11.45;;;;;;;4.50;90.26;97064.09;5089509;28;20028;-73
2020/12/10 11:06:36;;;;;;;19.05;8.77;;;;;;;4.31;89.70;97050.38;5090710;28;20024;-72
2020/12/10 11:09:01;;;;;;;;;;;;;;;4.56;88.55;97058.38;5091906;28;20568;-74
2020/12/10 11:11:27;;;;;;;15.23;8.77;;;;;;;4.96;88.21;97049.19;5091267;28;20007;-73
2020/12/10 11:13:52;;;;;;;;;;;;;;;5.16;86.75;97043.66;5111491;28;20028;-73
2020/12/10 11:16:27;;;;;;;20.95;10.23;;;;;;;5.36;85.03;97046.16;5089795;28;19923;-73
2020/12/10 11:18:55;;;;;;;14.45;9.15;;;;;;;5.76;84.11;97044.97;5089495;28;20016;-72
2020/12/10 11:21:28;;;;;;;18.08;10.43;;;;;;;5.57;83.79;97035.16;5090635;28;20020;-75
2020/12/10 11:23:59;;;;;;;15.68;9.50;;;;;;;5.55;83.60;97040.84;5090203;28;20028;-75
2020/12/10 11:26:24;;;;;;;15.52;10.75;;;;;;;5.55;83.30;97043.56;5090426;28;20527;-72
2020/12/10 11:28:50;;;;;;;20.75;11.07;;;;;;;5.25;84.53;97050.06;5090898;28;20035;-72
2020/12/10 11:31:15;;;;;;;;;;;;;;;5.18;85.63;97046.06;5090911;28;20397;-73
2020/12/10 11:33:40;;;;;;;14.05;8.90;;;;;;;5.33;83.73;97037.78;5089108;28;19997;-72
2020/12/10 11:36:06;;;;;;;15.82;10.05;;;;;;;5.27;84.22;97037.03;5088480;28;20499;-72
2020/12/10 11:38:32;;;;;;;14.93;8.35;;;;;;;5.14;83.97;97045.81;5090895;28;20508;-74